sensor_id;sensor_type;location;lat;lon;timestamp;P1;durP1;ratioP1;P2;durP2;ratioP2
20559;SDS011;10438;51.454;6.718;2023-01-29T00:02:23;63.17;;;27.70;;
20559;SDS011;10438;51.454;6.718;2023-01-29T00:04:48;59.10;;;27.50;;
20559;SDS011;10438;51.454;6.718;2023-01-29T00:07:14;58.63;;;27.63;;
20559;SDS011;10438;51.454;6.718;2023-01-29T00:09:39;53.67;;;25.73;;
20559;SDS011;10438;51.454;6.718;2023-01-29T00:12:05;57.70;;;26.80;;
20559;SDS011;10438;51.454;6.718;2023-01-29T00:14:33;55.77;;;25.97;;
20559;SDS011;10438;51.454;6.718;2023-01-29T00:16:58;61.63;;;26.37;;
20559;SDS011;10438;51.454;6.718;2023-01-29T00:19:31;52.90;;;25.97;;
20559;SDS011;10438;51.454;6.718;2023-01-29T00:21:56;54.20;;;26.07;;
20559;SDS011;10438;51.454;6.718;2023-01-29T00:24:22;58.97;;;26.57;;
20559;SDS011;10438;51.454;6.718;2023-01-29T00:26:47;53.77;;;26.30;;
20559;SDS011;10438;51.454;6.718;2023-01-29T00:29:14;52.70;;;26.23;;
20559;SDS011;10438;51.454;6.718;2023-01-29T00:31:39;52.87;;;25.20;;
20559;SDS011;10438;51.454;6.718;2023-01-29T00:34:09;59.10;;;26.43;;
20559;SDS011;10438;51.454;6.718;2023-01-29T00:36:35;55.23;;;26.30;;
20559;SDS011;10438;51.454;6.718;2023-01-29T00:39:00;57.47;;;26.67;;
20559;SDS011;10438;51.454;6.718;2023-01-29T00:41:34;55.17;;;26.27;;
20559;SDS011;10438;51.454;6.718;2023-01-29T00:44:18;59.03;;;25.80;;
20559;SDS011;10438;51.454;6.718;2023-01-29T00:47:03;57.80;;;26.90;;
20559;SDS011;10438;51.454;6.718;2023-01-29T00:49:49;52.97;;;26.87;;
20559;SDS011;10438;51.454;6.718;2023-01-29T00:52:14;57.23;;;26.40;;
20559;SDS011;10438;51.454;6.718;2023-01-29T00:54:50;59.93;;;28.00;;
20559;SDS011;10438;51.454;6.718;2023-01-29T00:57:20;52.97;;;25.23;;
20559;SDS011;10438;51.454;6.718;2023-01-29T00:59:46;55.13;;;27.23;;
20559;SDS011;10438;51.454;6.718;2023-01-29T01:02:11;55.97;;;26.90;;
20559;SDS011;10438;51.454;6.718;2023-01-29T01:04:55;57.57;;;25.07;;
20559;SDS011;10438;51.454;6.718;2023-01-29T01:07:21;57.77;;;25.20;;
20559;SDS011;10438;51.454;6.718;2023-01-29T01:09:47;57.50;;;25.90;;
20559;SDS011;10438;51.454;6.718;2023-01-29T01:12:31;60.33;;;26.83;;
20559;SDS011;10438;51.454;6.718;2023-01-29T01:14:56;60.13;;;26.63;;
20559;SDS011;10438;51.454;6.718;2023-01-29T01:17:22;57.97;;;26.77;;
20559;SDS011;10438;51.454;6.718;2023-01-29T01:19:48;55.10;;;25.30;;
20559;SDS011;10438;51.454;6.718;2023-01-29T01:22:14;59.77;;;25.47;;
20559;SDS011;10438;51.454;6.718;2023-01-29T01:24:39;55.37;;;26.93;;
20559;SDS011;10438;51.454;6.718;2023-01-29T01:27:05;55.87;;;26.20;;
20559;SDS011;10438;51.454;6.718;2023-01-29T01:29:31;62.43;;;27.10;;
20559;SDS011;10438;51.454;6.718;2023-01-29T01:31:57;59.70;;;27.03;;
20559;SDS011;10438;51.454;6.718;2023-01-29T01:34:23;57.73;;;25.53;;
20559;SDS011;10438;51.454;6.718;2023-01-29T01:36:50;57.20;;;25.97;;
20559;SDS011;10438;51.454;6.718;2023-01-29T01:39:17;60.10;;;26.97;;
20559;SDS011;10438;51.454;6.718;2023-01-29T01:41:42;65.90;;;27.77;;
20559;SDS011;10438;51.454;6.718;2023-01-29T01:44:48;60.63;;;27.87;;
20559;SDS011;10438;51.454;6.718;2023-01-29T01:47:12;56.17;;;26.17;;
20559;SDS011;10438;51.454;6.718;2023-01-29T01:49:39;58.33;;;27.03;;
20559;SDS011;10438;51.454;6.718;2023-01-29T01:52:05;57.50;;;26.77;;
20559;SDS011;10438;51.454;6.718;2023-01-29T01:54:32;60.00;;;26.77;;
20559;SDS011;10438;51.454;6.718;2023-01-29T01:56:59;59.70;;;27.37;;
20559;SDS011;10438;51.454;6.718;2023-01-29T01:59:33;56.63;;;26.03;;
20559;SDS011;10438;51.454;6.718;2023-01-29T02:02:01;57.87;;;27.63;;
20559;SDS011;10438;51.454;6.718;2023-01-29T02:04:46;57.40;;;26.87;;
20559;SDS011;10438;51.454;6.718;2023-01-29T02:07:32;58.70;;;25.27;;
20559;SDS011;10438;51.454;6.718;2023-01-29T02:10:16;60.33;;;27.27;;
20559;SDS011;10438;51.454;6.718;2023-01-29T02:12:43;56.63;;;25.83;;
20559;SDS011;10438;51.454;6.718;2023-01-29T02:15:10;55.10;;;26.00;;
20559;SDS011;10438;51.454;6.718;2023-01-29T02:17:36;52.50;;;25.47;;
20559;SDS011;10438;51.454;6.718;2023-01-29T02:25:42;57.60;;;24.80;;
20559;SDS011;10438;51.454;6.718;2023-01-29T02:28:31;56.90;;;25.53;;
20559;SDS011;10438;51.454;6.718;2023-01-29T02:34:00;54.43;;;25.23;;
20559;SDS011;10438;51.454;6.718;2023-01-29T02:39:45;54.20;;;24.63;;
20559;SDS011;10438;51.454;6.718;2023-01-29T02:42:22;54.53;;;25.50;;
20559;SDS011;10438;51.454;6.718;2023-01-29T02:45:03;57.53;;;26.77;;
20559;SDS011;10438;51.454;6.718;2023-01-29T02:50:20;56.00;;;25.87;;
20559;SDS011;10438;51.454;6.718;2023-01-29T02:53:09;53.23;;;24.13;;
20559;SDS011;10438;51.454;6.718;2023-01-29T02:55:39;52.83;;;24.50;;
20559;SDS011;10438;51.454;6.718;2023-01-29T02:58:19;58.37;;;24.97;;
20559;SDS011;10438;51.454;6.718;2023-01-29T03:00:54;52.20;;;23.00;;
20559;SDS011;10438;51.454;6.718;2023-01-29T03:03:24;50.50;;;23.57;;
20559;SDS011;10438;51.454;6.718;2023-01-29T03:05:57;47.60;;;22.60;;
20559;SDS011;10438;51.454;6.718;2023-01-29T03:08:40;50.97;;;22.93;;
20559;SDS011;10438;51.454;6.718;2023-01-29T03:11:07;47.83;;;22.53;;
20559;SDS011;10438;51.454;6.718;2023-01-29T03:16:18;50.20;;;21.90;;
20559;SDS011;10438;51.454;6.718;2023-01-29T03:19:02;48.43;;;22.17;;
20559;SDS011;10438;51.454;6.718;2023-01-29T03:21:36;49.23;;;22.27;;
20559;SDS011;10438;51.454;6.718;2023-01-29T03:24:15;49.40;;;21.43;;
20559;SDS011;10438;51.454;6.718;2023-01-29T03:27:03;48.80;;;22.77;;
20559;SDS011;10438;51.454;6.718;2023-01-29T03:29:52;46.23;;;21.20;;
20559;SDS011;10438;51.454;6.718;2023-01-29T03:32:38;48.57;;;21.70;;
20559;SDS011;10438;51.454;6.718;2023-01-29T03:35:04;47.70;;;22.17;;
20559;SDS011;10438;51.454;6.718;2023-01-29T03:40:03;48.37;;;22.53;;
20559;SDS011;10438;51.454;6.718;2023-01-29T03:45:29;52.37;;;24.07;;
20559;SDS011;10438;51.454;6.718;2023-01-29T03:48:34;54.57;;;24.53;;
20559;SDS011;10438;51.454;6.718;2023-01-29T03:59:05;48.77;;;23.30;;
20559;SDS011;10438;51.454;6.718;2023-01-29T04:06:51;54.93;;;24.03;;
20559;SDS011;10438;51.454;6.718;2023-01-29T04:09:21;53.10;;;23.87;;
20559;SDS011;10438;51.454;6.718;2023-01-29T04:12:09;53.67;;;23.63;;
20559;SDS011;10438;51.454;6.718;2023-01-29T04:14:36;48.53;;;21.20;;
20559;SDS011;10438;51.454;6.718;2023-01-29T04:17:03;53.23;;;24.47;;
20559;SDS011;10438;51.454;6.718;2023-01-29T04:19:40;52.63;;;23.10;;
20559;SDS011;10438;51.454;6.718;2023-01-29T04:22:09;51.23;;;22.60;;
20559;SDS011;10438;51.454;6.718;2023-01-29T04:24:39;52.93;;;24.20;;
20559;SDS011;10438;51.454;6.718;2023-01-29T04:27:10;53.57;;;23.57;;
20559;SDS011;10438;51.454;6.718;2023-01-29T04:30:22;52.90;;;24.70;;
20559;SDS011;10438;51.454;6.718;2023-01-29T04:36:12;52.47;;;22.13;;
20559;SDS011;10438;51.454;6.718;2023-01-29T04:39:02;48.67;;;21.23;;
20559;SDS011;10438;51.454;6.718;2023-01-29T04:41:58;48.70;;;22.30;;
20559;SDS011;10438;51.454;6.718;2023-01-29T04:44:41;49.73;;;22.70;;
20559;SDS011;10438;51.454;6.718;2023-01-29T04:47:27;48.90;;;22.10;;
20559;SDS011;10438;51.454;6.718;2023-01-29T04:55:31;53.27;;;23.30;;
20559;SDS011;10438;51.454;6.718;2023-01-29T04:58:05;50.47;;;23.20;;
20559;SDS011;10438;51.454;6.718;2023-01-29T05:00:42;50.27;;;22.53;;
20559;SDS011;10438;51.454;6.718;2023-01-29T05:03:11;50.80;;;23.27;;
20559;SDS011;10438;51.454;6.718;2023-01-29T05:05:39;54.93;;;23.17;;
20559;SDS011;10438;51.454;6.718;2023-01-29T05:08:07;50.40;;;22.93;;
20559;SDS011;10438;51.454;6.718;2023-01-29T05:10:35;50.57;;;23.50;;
20559;SDS011;10438;51.454;6.718;2023-01-29T05:13:02;49.83;;;22.43;;
20559;SDS011;10438;51.454;6.718;2023-01-29T05:15:34;46.23;;;23.00;;
20559;SDS011;10438;51.454;6.718;2023-01-29T05:18:07;49.13;;;22.50;;
20559;SDS011;10438;51.454;6.718;2023-01-29T05:20:35;54.97;;;23.83;;
20559;SDS011;10438;51.454;6.718;2023-01-29T05:23:03;48.67;;;23.70;;
20559;SDS011;10438;51.454;6.718;2023-01-29T05:25:32;54.37;;;23.50;;
20559;SDS011;10438;51.454;6.718;2023-01-29T05:27:59;52.53;;;22.53;;
20559;SDS011;10438;51.454;6.718;2023-01-29T05:30:31;57.73;;;22.13;;
20559;SDS011;10438;51.454;6.718;2023-01-29T05:32:58;49.37;;;23.23;;
20559;SDS011;10438;51.454;6.718;2023-01-29T05:35:23;54.33;;;23.30;;
20559;SDS011;10438;51.454;6.718;2023-01-29T05:37:49;47.83;;;21.97;;
20559;SDS011;10438;51.454;6.718;2023-01-29T05:40:15;53.73;;;24.30;;
20559;SDS011;10438;51.454;6.718;2023-01-29T05:42:41;54.40;;;23.13;;
20559;SDS011;10438;51.454;6.718;2023-01-29T05:45:07;54.67;;;23.20;;
20559;SDS011;10438;51.454;6.718;2023-01-29T05:47:32;56.47;;;23.70;;
20559;SDS011;10438;51.454;6.718;2023-01-29T05:49:58;55.37;;;24.67;;
20559;SDS011;10438;51.454;6.718;2023-01-29T05:52:23;53.97;;;23.53;;
20559;SDS011;10438;51.454;6.718;2023-01-29T05:54:49;57.27;;;24.07;;
20559;SDS011;10438;51.454;6.718;2023-01-29T05:57:14;60.00;;;22.43;;
20559;SDS011;10438;51.454;6.718;2023-01-29T05:59:40;53.60;;;22.90;;
20559;SDS011;10438;51.454;6.718;2023-01-29T06:02:05;54.93;;;23.37;;
20559;SDS011;10438;51.454;6.718;2023-01-29T06:04:31;56.43;;;23.77;;
20559;SDS011;10438;51.454;6.718;2023-01-29T06:06:57;59.07;;;22.40;;
20559;SDS011;10438;51.454;6.718;2023-01-29T06:09:22;55.27;;;23.87;;
20559;SDS011;10438;51.454;6.718;2023-01-29T06:11:48;54.70;;;24.23;;
20559;SDS011;10438;51.454;6.718;2023-01-29T06:14:13;52.60;;;24.17;;
20559;SDS011;10438;51.454;6.718;2023-01-29T06:16:39;52.10;;;23.07;;
20559;SDS011;10438;51.454;6.718;2023-01-29T06:19:04;65.73;;;25.13;;
20559;SDS011;10438;51.454;6.718;2023-01-29T06:21:30;58.63;;;23.50;;
20559;SDS011;10438;51.454;6.718;2023-01-29T06:23:55;55.17;;;23.17;;
20559;SDS011;10438;51.454;6.718;2023-01-29T06:26:21;55.47;;;23.30;;
20559;SDS011;10438;51.454;6.718;2023-01-29T06:28:47;60.53;;;24.90;;
20559;SDS011;10438;51.454;6.718;2023-01-29T06:31:13;52.67;;;23.57;;
20559;SDS011;10438;51.454;6.718;2023-01-29T06:33:39;54.67;;;24.23;;
20559;SDS011;10438;51.454;6.718;2023-01-29T06:36:04;54.20;;;23.33;;
20559;SDS011;10438;51.454;6.718;2023-01-29T06:38:31;57.30;;;24.73;;
20559;SDS011;10438;51.454;6.718;2023-01-29T06:40:57;53.63;;;24.13;;
20559;SDS011;10438;51.454;6.718;2023-01-29T06:43:22;61.23;;;24.53;;
20559;SDS011;10438;51.454;6.718;2023-01-29T06:45:52;55.17;;;22.97;;
20559;SDS011;10438;51.454;6.718;2023-01-29T06:48:19;59.70;;;24.57;;
20559;SDS011;10438;51.454;6.718;2023-01-29T06:50:45;57.17;;;25.33;;
20559;SDS011;10438;51.454;6.718;2023-01-29T06:53:13;58.63;;;24.83;;
20559;SDS011;10438;51.454;6.718;2023-01-29T06:55:39;58.43;;;26.60;;
20559;SDS011;10438;51.454;6.718;2023-01-29T06:58:08;58.20;;;24.10;;
20559;SDS011;10438;51.454;6.718;2023-01-29T07:00:34;62.33;;;24.23;;
20559;SDS011;10438;51.454;6.718;2023-01-29T07:03:01;59.37;;;24.23;;
20559;SDS011;10438;51.454;6.718;2023-01-29T07:05:27;60.37;;;25.03;;
20559;SDS011;10438;51.454;6.718;2023-01-29T07:07:52;58.40;;;24.70;;
20559;SDS011;10438;51.454;6.718;2023-01-29T07:10:18;62.43;;;26.20;;
20559;SDS011;10438;51.454;6.718;2023-01-29T07:12:44;56.90;;;24.53;;
20559;SDS011;10438;51.454;6.718;2023-01-29T07:15:10;58.33;;;25.23;;
20559;SDS011;10438;51.454;6.718;2023-01-29T07:17:36;55.97;;;25.27;;
20559;SDS011;10438;51.454;6.718;2023-01-29T07:20:03;63.20;;;26.97;;
20559;SDS011;10438;51.454;6.718;2023-01-29T07:22:30;59.13;;;25.40;;
20559;SDS011;10438;51.454;6.718;2023-01-29T07:24:56;58.37;;;25.37;;
20559;SDS011;10438;51.454;6.718;2023-01-29T07:27:21;60.23;;;25.80;;
20559;SDS011;10438;51.454;6.718;2023-01-29T07:29:47;57.47;;;25.63;;
20559;SDS011;10438;51.454;6.718;2023-01-29T07:32:12;57.53;;;25.93;;
20559;SDS011;10438;51.454;6.718;2023-01-29T07:34:38;59.50;;;27.50;;
20559;SDS011;10438;51.454;6.718;2023-01-29T07:37:03;57.77;;;25.17;;
20559;SDS011;10438;51.454;6.718;2023-01-29T07:39:30;55.83;;;24.67;;
20559;SDS011;10438;51.454;6.718;2023-01-29T07:41:56;59.73;;;25.67;;
20559;SDS011;10438;51.454;6.718;2023-01-29T07:44:21;60.43;;;25.57;;
20559;SDS011;10438;51.454;6.718;2023-01-29T07:46:47;57.73;;;25.93;;
20559;SDS011;10438;51.454;6.718;2023-01-29T07:49:12;57.27;;;24.30;;
20559;SDS011;10438;51.454;6.718;2023-01-29T07:51:39;53.87;;;23.97;;
20559;SDS011;10438;51.454;6.718;2023-01-29T07:54:04;52.90;;;23.63;;
20559;SDS011;10438;51.454;6.718;2023-01-29T07:56:30;58.30;;;23.97;;
20559;SDS011;10438;51.454;6.718;2023-01-29T07:58:55;59.70;;;25.20;;
20559;SDS011;10438;51.454;6.718;2023-01-29T08:01:21;58.73;;;24.43;;
20559;SDS011;10438;51.454;6.718;2023-01-29T08:03:46;55.53;;;24.17;;
20559;SDS011;10438;51.454;6.718;2023-01-29T08:06:12;55.87;;;25.63;;
20559;SDS011;10438;51.454;6.718;2023-01-29T08:08:37;58.53;;;24.80;;
20559;SDS011;10438;51.454;6.718;2023-01-29T08:11:03;59.00;;;24.87;;
20559;SDS011;10438;51.454;6.718;2023-01-29T08:13:29;52.73;;;24.23;;
20559;SDS011;10438;51.454;6.718;2023-01-29T08:16:02;55.57;;;25.07;;
20559;SDS011;10438;51.454;6.718;2023-01-29T08:18:28;56.30;;;25.00;;
20559;SDS011;10438;51.454;6.718;2023-01-29T08:20:59;63.53;;;26.47;;
20559;SDS011;10438;51.454;6.718;2023-01-29T08:23:25;58.73;;;24.77;;
20559;SDS011;10438;51.454;6.718;2023-01-29T08:25:50;63.97;;;26.80;;
20559;SDS011;10438;51.454;6.718;2023-01-29T08:28:16;61.97;;;28.07;;
20559;SDS011;10438;51.454;6.718;2023-01-29T08:30:41;59.80;;;25.63;;
20559;SDS011;10438;51.454;6.718;2023-01-29T08:33:08;52.67;;;23.40;;
20559;SDS011;10438;51.454;6.718;2023-01-29T08:35:34;60.30;;;26.13;;
20559;SDS011;10438;51.454;6.718;2023-01-29T08:38:00;62.17;;;25.67;;
20559;SDS011;10438;51.454;6.718;2023-01-29T08:40:28;64.27;;;26.43;;
20559;SDS011;10438;51.454;6.718;2023-01-29T08:43:01;58.83;;;23.90;;
20559;SDS011;10438;51.454;6.718;2023-01-29T08:45:30;57.77;;;26.17;;
20559;SDS011;10438;51.454;6.718;2023-01-29T08:47:58;66.00;;;27.00;;
20559;SDS011;10438;51.454;6.718;2023-01-29T08:50:24;66.20;;;26.10;;
20559;SDS011;10438;51.454;6.718;2023-01-29T08:52:49;58.93;;;25.40;;
20559;SDS011;10438;51.454;6.718;2023-01-29T08:55:15;58.50;;;25.80;;
20559;SDS011;10438;51.454;6.718;2023-01-29T08:57:40;64.13;;;28.07;;
20559;SDS011;10438;51.454;6.718;2023-01-29T09:00:06;55.73;;;25.27;;
20559;SDS011;10438;51.454;6.718;2023-01-29T09:02:33;59.77;;;25.73;;
20559;SDS011;10438;51.454;6.718;2023-01-29T09:04:59;63.97;;;28.83;;
20559;SDS011;10438;51.454;6.718;2023-01-29T09:07:24;56.80;;;24.73;;
20559;SDS011;10438;51.454;6.718;2023-01-29T09:09:50;58.50;;;26.13;;
20559;SDS011;10438;51.454;6.718;2023-01-29T09:12:15;56.10;;;25.87;;
20559;SDS011;10438;51.454;6.718;2023-01-29T09:14:41;57.03;;;25.30;;
20559;SDS011;10438;51.454;6.718;2023-01-29T09:17:06;59.53;;;25.93;;
20559;SDS011;10438;51.454;6.718;2023-01-29T09:19:32;58.77;;;27.17;;
20559;SDS011;10438;51.454;6.718;2023-01-29T09:21:57;57.43;;;24.67;;
20559;SDS011;10438;51.454;6.718;2023-01-29T09:24:23;55.87;;;23.80;;
20559;SDS011;10438;51.454;6.718;2023-01-29T09:26:48;61.57;;;26.10;;
20559;SDS011;10438;51.454;6.718;2023-01-29T09:29:14;65.30;;;26.03;;
20559;SDS011;10438;51.454;6.718;2023-01-29T09:31:39;65.13;;;27.97;;
20559;SDS011;10438;51.454;6.718;2023-01-29T09:34:05;59.60;;;25.30;;
20559;SDS011;10438;51.454;6.718;2023-01-29T09:36:30;61.90;;;24.43;;
20559;SDS011;10438;51.454;6.718;2023-01-29T09:38:56;56.80;;;23.77;;
20559;SDS011;10438;51.454;6.718;2023-01-29T09:43:50;53.37;;;23.37;;
20559;SDS011;10438;51.454;6.718;2023-01-29T09:46:26;60.23;;;26.37;;
20559;SDS011;10438;51.454;6.718;2023-01-29T09:49:00;51.10;;;21.17;;
20559;SDS011;10438;51.454;6.718;2023-01-29T09:51:34;59.70;;;25.87;;
20559;SDS011;10438;51.454;6.718;2023-01-29T09:56:47;57.73;;;25.83;;
20559;SDS011;10438;51.454;6.718;2023-01-29T09:59:17;60.00;;;25.57;;
20559;SDS011;10438;51.454;6.718;2023-01-29T10:01:50;64.33;;;26.77;;
20559;SDS011;10438;51.454;6.718;2023-01-29T10:04:37;61.87;;;24.77;;
20559;SDS011;10438;51.454;6.718;2023-01-29T10:07:37;58.23;;;26.43;;
20559;SDS011;10438;51.454;6.718;2023-01-29T10:10:27;60.57;;;25.40;;
20559;SDS011;10438;51.454;6.718;2023-01-29T10:15:48;61.67;;;26.13;;
20559;SDS011;10438;51.454;6.718;2023-01-29T10:21:15;58.17;;;24.33;;
20559;SDS011;10438;51.454;6.718;2023-01-29T10:23:55;67.27;;;26.87;;
20559;SDS011;10438;51.454;6.718;2023-01-29T10:26:45;57.20;;;25.07;;
20559;SDS011;10438;51.454;6.718;2023-01-29T10:29:13;59.80;;;26.63;;
20559;SDS011;10438;51.454;6.718;2023-01-29T10:31:42;62.50;;;27.30;;
20559;SDS011;10438;51.454;6.718;2023-01-29T10:34:13;55.23;;;24.77;;
20559;SDS011;10438;51.454;6.718;2023-01-29T10:36:55;60.63;;;26.90;;
20559;SDS011;10438;51.454;6.718;2023-01-29T10:39:22;58.93;;;26.10;;
20559;SDS011;10438;51.454;6.718;2023-01-29T10:42:12;61.43;;;27.03;;
20559;SDS011;10438;51.454;6.718;2023-01-29T10:58:50;55.53;;;23.07;;
20559;SDS011;10438;51.454;6.718;2023-01-29T11:01:18;61.27;;;26.50;;
20559;SDS011;10438;51.454;6.718;2023-01-29T11:03:44;58.33;;;25.57;;
20559;SDS011;10438;51.454;6.718;2023-01-29T11:06:20;57.43;;;25.90;;
20559;SDS011;10438;51.454;6.718;2023-01-29T11:11:56;56.57;;;26.03;;
20559;SDS011;10438;51.454;6.718;2023-01-29T11:14:27;60.57;;;25.97;;
20559;SDS011;10438;51.454;6.718;2023-01-29T11:17:13;56.77;;;23.13;;
20559;SDS011;10438;51.454;6.718;2023-01-29T11:19:40;59.33;;;25.30;;
20559;SDS011;10438;51.454;6.718;2023-01-29T11:22:12;51.77;;;23.27;;
20559;SDS011;10438;51.454;6.718;2023-01-29T11:24:42;51.83;;;24.17;;
20559;SDS011;10438;51.454;6.718;2023-01-29T11:27:16;53.10;;;24.70;;
20559;SDS011;10438;51.454;6.718;2023-01-29T11:29:51;58.43;;;26.73;;
20559;SDS011;10438;51.454;6.718;2023-01-29T11:37:30;55.90;;;26.30;;
20559;SDS011;10438;51.454;6.718;2023-01-29T11:42:46;51.90;;;23.53;;
20559;SDS011;10438;51.454;6.718;2023-01-29T11:47:47;58.37;;;24.30;;
20559;SDS011;10438;51.454;6.718;2023-01-29T11:50:22;61.83;;;25.53;;
20559;SDS011;10438;51.454;6.718;2023-01-29T11:52:50;54.83;;;25.17;;
20559;SDS011;10438;51.454;6.718;2023-01-29T11:55:17;55.13;;;23.57;;
20559;SDS011;10438;51.454;6.718;2023-01-29T11:57:54;60.07;;;26.07;;
20559;SDS011;10438;51.454;6.718;2023-01-29T12:00:28;46.57;;;21.53;;
20559;SDS011;10438;51.454;6.718;2023-01-29T12:03:11;56.27;;;25.27;;
20559;SDS011;10438;51.454;6.718;2023-01-29T12:05:59;56.00;;;25.87;;
20559;SDS011;10438;51.454;6.718;2023-01-29T12:08:32;51.37;;;24.47;;
20559;SDS011;10438;51.454;6.718;2023-01-29T12:13:58;57.10;;;23.97;;
20559;SDS011;10438;51.454;6.718;2023-01-29T12:16:32;54.43;;;23.50;;
20559;SDS011;10438;51.454;6.718;2023-01-29T12:19:11;57.00;;;24.73;;
20559;SDS011;10438;51.454;6.718;2023-01-29T12:22:02;58.93;;;25.30;;
20559;SDS011;10438;51.454;6.718;2023-01-29T12:27:30;57.27;;;24.20;;
20559;SDS011;10438;51.454;6.718;2023-01-29T12:33:08;54.47;;;24.47;;
20559;SDS011;10438;51.454;6.718;2023-01-29T12:35:47;49.93;;;23.03;;
20559;SDS011;10438;51.454;6.718;2023-01-29T12:38:22;49.33;;;23.67;;
20559;SDS011;10438;51.454;6.718;2023-01-29T12:40:55;52.37;;;23.20;;
20559;SDS011;10438;51.454;6.718;2023-01-29T12:46:05;51.83;;;23.87;;
20559;SDS011;10438;51.454;6.718;2023-01-29T12:48:45;53.40;;;24.03;;
20559;SDS011;10438;51.454;6.718;2023-01-29T12:51:14;52.77;;;25.40;;
20559;SDS011;10438;51.454;6.718;2023-01-29T12:53:46;54.50;;;24.13;;
20559;SDS011;10438;51.454;6.718;2023-01-29T12:56:31;52.67;;;25.50;;
20559;SDS011;10438;51.454;6.718;2023-01-29T12:59:14;54.97;;;24.37;;
20559;SDS011;10438;51.454;6.718;2023-01-29T13:01:49;51.37;;;23.47;;
20559;SDS011;10438;51.454;6.718;2023-01-29T13:07:13;47.97;;;23.00;;
20559;SDS011;10438;51.454;6.718;2023-01-29T13:09:44;54.10;;;25.00;;
20559;SDS011;10438;51.454;6.718;2023-01-29T13:12:15;50.30;;;22.73;;
20559;SDS011;10438;51.454;6.718;2023-01-29T13:14:50;53.07;;;24.97;;
20559;SDS011;10438;51.454;6.718;2023-01-29T13:19:49;48.33;;;24.10;;
20559;SDS011;10438;51.454;6.718;2023-01-29T13:22:22;48.73;;;23.00;;
20559;SDS011;10438;51.454;6.718;2023-01-29T13:24:53;49.53;;;22.97;;
20559;SDS011;10438;51.454;6.718;2023-01-29T13:27:26;49.93;;;22.77;;
20559;SDS011;10438;51.454;6.718;2023-01-29T13:29:55;49.23;;;23.30;;
20559;SDS011;10438;51.454;6.718;2023-01-29T13:32:23;55.77;;;24.27;;
20559;SDS011;10438;51.454;6.718;2023-01-29T13:34:51;47.10;;;23.00;;
20559;SDS011;10438;51.454;6.718;2023-01-29T13:37:25;48.57;;;22.60;;
20559;SDS011;10438;51.454;6.718;2023-01-29T13:39:54;49.37;;;23.67;;
20559;SDS011;10438;51.454;6.718;2023-01-29T13:42:32;52.17;;;22.27;;
20559;SDS011;10438;51.454;6.718;2023-01-29T13:45:01;50.90;;;24.23;;
20559;SDS011;10438;51.454;6.718;2023-01-29T13:47:33;47.57;;;22.63;;
20559;SDS011;10438;51.454;6.718;2023-01-29T13:50:08;48.90;;;23.40;;
20559;SDS011;10438;51.454;6.718;2023-01-29T13:52:57;47.60;;;22.80;;
20559;SDS011;10438;51.454;6.718;2023-01-29T13:55:27;50.37;;;22.93;;
20559;SDS011;10438;51.454;6.718;2023-01-29T13:57:56;44.17;;;21.27;;
20559;SDS011;10438;51.454;6.718;2023-01-29T14:01:05;44.97;;;21.70;;
20559;SDS011;10438;51.454;6.718;2023-01-29T14:05:56;44.63;;;21.13;;
20559;SDS011;10438;51.454;6.718;2023-01-29T14:13:39;45.33;;;20.60;;
20559;SDS011;10438;51.454;6.718;2023-01-29T14:18:44;43.60;;;21.07;;
20559;SDS011;10438;51.454;6.718;2023-01-29T14:21:19;44.43;;;20.90;;
20559;SDS011;10438;51.454;6.718;2023-01-29T14:23:49;45.77;;;21.67;;
20559;SDS011;10438;51.454;6.718;2023-01-29T14:27:02;52.53;;;22.37;;
20559;SDS011;10438;51.454;6.718;2023-01-29T14:29:04;44.63;;;21.20;;
20559;SDS011;10438;51.454;6.718;2023-01-29T14:31:59;40.47;;;19.07;;
20559;SDS011;10438;51.454;6.718;2023-01-29T14:37:18;45.93;;;21.17;;
20559;SDS011;10438;51.454;6.718;2023-01-29T14:39:47;39.50;;;18.30;;
20559;SDS011;10438;51.454;6.718;2023-01-29T14:52:52;33.63;;;16.77;;
20559;SDS011;10438;51.454;6.718;2023-01-29T14:55:30;35.83;;;18.17;;
20559;SDS011;10438;51.454;6.718;2023-01-29T14:57:59;36.60;;;16.83;;
20559;SDS011;10438;51.454;6.718;2023-01-29T15:00:28;34.53;;;16.93;;
20559;SDS011;10438;51.454;6.718;2023-01-29T15:02:57;35.77;;;17.17;;
20559;SDS011;10438;51.454;6.718;2023-01-29T15:05:24;33.33;;;15.90;;
20559;SDS011;10438;51.454;6.718;2023-01-29T15:07:56;36.33;;;17.53;;
20559;SDS011;10438;51.454;6.718;2023-01-29T15:18:36;33.43;;;16.63;;
20559;SDS011;10438;51.454;6.718;2023-01-29T15:21:10;34.77;;;15.80;;
20559;SDS011;10438;51.454;6.718;2023-01-29T15:23:40;34.47;;;15.57;;
20559;SDS011;10438;51.454;6.718;2023-01-29T15:26:11;34.00;;;15.53;;
20559;SDS011;10438;51.454;6.718;2023-01-29T15:28:42;35.33;;;17.17;;
20559;SDS011;10438;51.454;6.718;2023-01-29T15:31:12;35.70;;;16.43;;
20559;SDS011;10438;51.454;6.718;2023-01-29T15:33:43;32.27;;;15.27;;
20559;SDS011;10438;51.454;6.718;2023-01-29T15:36:20;34.50;;;15.87;;
20559;SDS011;10438;51.454;6.718;2023-01-29T15:41:42;33.63;;;16.67;;
20559;SDS011;10438;51.454;6.718;2023-01-29T15:44:11;37.03;;;16.20;;
20559;SDS011;10438;51.454;6.718;2023-01-29T15:46:43;33.77;;;16.27;;
20559;SDS011;10438;51.454;6.718;2023-01-29T15:49:19;35.87;;;17.10;;
20559;SDS011;10438;51.454;6.718;2023-01-29T15:51:56;35.83;;;16.90;;
20559;SDS011;10438;51.454;6.718;2023-01-29T15:54:23;33.03;;;16.03;;
20559;SDS011;10438;51.454;6.718;2023-01-29T15:56:53;33.83;;;15.77;;
20559;SDS011;10438;51.454;6.718;2023-01-29T15:59:21;35.17;;;17.17;;
20559;SDS011;10438;51.454;6.718;2023-01-29T16:01:48;36.73;;;17.57;;
20559;SDS011;10438;51.454;6.718;2023-01-29T16:04:24;35.70;;;15.83;;
20559;SDS011;10438;51.454;6.718;2023-01-29T16:06:53;36.40;;;16.83;;
20559;SDS011;10438;51.454;6.718;2023-01-29T16:09:21;35.53;;;17.20;;
20559;SDS011;10438;51.454;6.718;2023-01-29T16:11:49;38.70;;;17.30;;
20559;SDS011;10438;51.454;6.718;2023-01-29T16:14:16;36.90;;;17.00;;
20559;SDS011;10438;51.454;6.718;2023-01-29T16:16:45;33.63;;;16.80;;
20559;SDS011;10438;51.454;6.718;2023-01-29T16:19:22;35.17;;;17.17;;
20559;SDS011;10438;51.454;6.718;2023-01-29T16:21:59;36.97;;;16.57;;
20559;SDS011;10438;51.454;6.718;2023-01-29T16:24:28;38.23;;;17.50;;
20559;SDS011;10438;51.454;6.718;2023-01-29T16:27:01;47.13;;;18.83;;
20559;SDS011;10438;51.454;6.718;2023-01-29T16:29:35;33.90;;;16.77;;
20559;SDS011;10438;51.454;6.718;2023-01-29T16:32:02;38.70;;;18.77;;
20559;SDS011;10438;51.454;6.718;2023-01-29T16:34:31;36.80;;;17.37;;
20559;SDS011;10438;51.454;6.718;2023-01-29T16:37:18;42.27;;;18.97;;
20559;SDS011;10438;51.454;6.718;2023-01-29T16:39:47;35.87;;;17.30;;
20559;SDS011;10438;51.454;6.718;2023-01-29T16:45:24;37.03;;;18.53;;
20559;SDS011;10438;51.454;6.718;2023-01-29T16:47:35;36.50;;;18.73;;
20559;SDS011;10438;51.454;6.718;2023-01-29T16:53:02;37.43;;;17.20;;
20559;SDS011;10438;51.454;6.718;2023-01-29T16:55:36;36.67;;;18.30;;
20559;SDS011;10438;51.454;6.718;2023-01-29T16:58:13;42.13;;;18.63;;
20559;SDS011;10438;51.454;6.718;2023-01-29T17:00:48;37.40;;;19.03;;
20559;SDS011;10438;51.454;6.718;2023-01-29T17:03:17;43.07;;;19.33;;
20559;SDS011;10438;51.454;6.718;2023-01-29T17:05:43;35.67;;;15.63;;